sensor_id;sensor_type;location;lat;lon;timestamp;P1;durP1;ratioP1;P2;durP2;ratioP2
31382;SDS011;18014;49.228;11.102;2024-03-02T00:01:23;65.20;;;36.38;;
31382;SDS011;18014;49.228;11.102;2024-03-02T00:03:24;56.63;;;33.92;;
31382;SDS011;18014;49.228;11.102;2024-03-02T00:05:25;67.20;;;34.92;;
31382;SDS011;18014;49.228;11.102;2024-03-02T00:07:25;66.75;;;35.33;;
31382;SDS011;18014;49.228;11.102;2024-03-02T00:09:26;63.03;;;35.67;;
31382;SDS011;18014;49.228;11.102;2024-03-02T00:11:27;63.63;;;34.28;;
31382;SDS011;18014;49.228;11.102;2024-03-02T00:13:29;62.20;;;33.50;;
31382;SDS011;18014;49.228;11.102;2024-03-02T00:17:32;63.00;;;35.67;;
31382;SDS011;18014;49.228;11.102;2024-03-02T00:19:33;60.05;;;33.90;;
31382;SDS011;18014;49.228;11.102;2024-03-02T00:21:39;63.05;;;35.17;;
31382;SDS011;18014;49.228;11.102;2024-03-02T00:23:40;53.00;;;32.83;;
31382;SDS011;18014;49.228;11.102;2024-03-02T00:27:47;57.40;;;33.22;;
31382;SDS011;18014;49.228;11.102;2024-03-02T00:29:51;61.47;;;34.05;;
31382;SDS011;18014;49.228;11.102;2024-03-02T00:31:52;57.50;;;33.75;;
31382;SDS011;18014;49.228;11.102;2024-03-02T00:33:53;61.72;;;33.33;;
31382;SDS011;18014;49.228;11.102;2024-03-02T00:35:54;59.15;;;32.38;;
31382;SDS011;18014;49.228;11.102;2024-03-02T00:37:56;59.50;;;33.20;;
31382;SDS011;18014;49.228;11.102;2024-03-02T00:39:57;52.88;;;32.00;;
31382;SDS011;18014;49.228;11.102;2024-03-02T00:41:58;54.80;;;32.00;;
31382;SDS011;18014;49.228;11.102;2024-03-02T00:44:00;53.53;;;31.67;;
31382;SDS011;18014;49.228;11.102;2024-03-02T00:46:03;59.08;;;31.05;;
31382;SDS011;18014;49.228;11.102;2024-03-02T00:48:04;60.33;;;31.52;;
31382;SDS011;18014;49.228;11.102;2024-03-02T00:50:05;55.28;;;30.48;;
31382;SDS011;18014;49.228;11.102;2024-03-02T00:52:06;53.15;;;30.27;;
31382;SDS011;18014;49.228;11.102;2024-03-02T00:54:08;57.33;;;30.67;;
31382;SDS011;18014;49.228;11.102;2024-03-02T00:56:10;50.88;;;30.60;;
31382;SDS011;18014;49.228;11.102;2024-03-02T00:58:12;54.97;;;31.38;;
31382;SDS011;18014;49.228;11.102;2024-03-02T01:00:13;58.00;;;34.53;;
31382;SDS011;18014;49.228;11.102;2024-03-02T01:02:15;53.70;;;30.35;;
31382;SDS011;18014;49.228;11.102;2024-03-02T01:04:16;51.30;;;28.52;;
31382;SDS011;18014;49.228;11.102;2024-03-02T01:06:17;50.10;;;30.50;;
31382;SDS011;18014;49.228;11.102;2024-03-02T01:08:18;57.65;;;33.25;;
31382;SDS011;18014;49.228;11.102;2024-03-02T01:10:19;58.35;;;31.58;;
31382;SDS011;18014;49.228;11.102;2024-03-02T01:12:20;54.08;;;30.95;;
31382;SDS011;18014;49.228;11.102;2024-03-02T01:14:21;53.92;;;30.55;;
31382;SDS011;18014;49.228;11.102;2024-03-02T01:16:22;56.38;;;32.00;;
31382;SDS011;18014;49.228;11.102;2024-03-02T01:18:23;53.60;;;32.28;;
31382;SDS011;18014;49.228;11.102;2024-03-02T01:20:24;54.80;;;31.08;;
31382;SDS011;18014;49.228;11.102;2024-03-02T01:22:25;52.72;;;28.85;;
31382;SDS011;18014;49.228;11.102;2024-03-02T01:24:26;52.30;;;28.98;;
31382;SDS011;18014;49.228;11.102;2024-03-02T01:26:27;42.38;;;26.23;;
31382;SDS011;18014;49.228;11.102;2024-03-02T01:28:28;47.92;;;27.30;;
31382;SDS011;18014;49.228;11.102;2024-03-02T01:30:29;48.17;;;29.25;;
31382;SDS011;18014;49.228;11.102;2024-03-02T01:32:30;49.25;;;29.48;;
31382;SDS011;18014;49.228;11.102;2024-03-02T01:34:31;51.97;;;30.10;;
31382;SDS011;18014;49.228;11.102;2024-03-02T01:36:32;48.15;;;29.30;;
31382;SDS011;18014;49.228;11.102;2024-03-02T01:38:33;48.85;;;27.95;;
31382;SDS011;18014;49.228;11.102;2024-03-02T01:40:35;51.17;;;28.83;;
31382;SDS011;18014;49.228;11.102;2024-03-02T01:42:37;41.03;;;24.67;;
31382;SDS011;18014;49.228;11.102;2024-03-02T01:44:39;43.53;;;27.55;;
31382;SDS011;18014;49.228;11.102;2024-03-02T01:46:40;42.55;;;26.35;;
31382;SDS011;18014;49.228;11.102;2024-03-02T01:48:41;40.58;;;26.13;;
31382;SDS011;18014;49.228;11.102;2024-03-02T01:50:42;44.05;;;27.45;;
31382;SDS011;18014;49.228;11.102;2024-03-02T01:52:43;42.15;;;25.92;;
31382;SDS011;18014;49.228;11.102;2024-03-02T01:54:44;39.13;;;23.77;;
31382;SDS011;18014;49.228;11.102;2024-03-02T01:56:45;40.70;;;23.55;;
31382;SDS011;18014;49.228;11.102;2024-03-02T01:58:46;40.55;;;24.05;;
31382;SDS011;18014;49.228;11.102;2024-03-02T02:00:47;41.00;;;22.75;;
31382;SDS011;18014;49.228;11.102;2024-03-02T02:02:48;38.60;;;23.17;;
31382;SDS011;18014;49.228;11.102;2024-03-02T02:04:51;37.55;;;22.15;;
31382;SDS011;18014;49.228;11.102;2024-03-02T02:06:52;38.58;;;22.13;;
31382;SDS011;18014;49.228;11.102;2024-03-02T02:08:53;32.15;;;19.85;;
31382;SDS011;18014;49.228;11.102;2024-03-02T02:10:55;34.05;;;21.17;;
31382;SDS011;18014;49.228;11.102;2024-03-02T02:12:55;31.02;;;20.77;;
31382;SDS011;18014;49.228;11.102;2024-03-02T02:14:56;35.90;;;20.52;;
31382;SDS011;18014;49.228;11.102;2024-03-02T02:16:58;27.58;;;18.13;;
31382;SDS011;18014;49.228;11.102;2024-03-02T02:18:59;30.25;;;19.20;;
31382;SDS011;18014;49.228;11.102;2024-03-02T02:21:00;27.67;;;18.65;;
31382;SDS011;18014;49.228;11.102;2024-03-02T02:23:04;29.00;;;17.90;;
31382;SDS011;18014;49.228;11.102;2024-03-02T02:25:06;31.65;;;19.98;;
31382;SDS011;18014;49.228;11.102;2024-03-02T02:27:07;30.20;;;17.77;;
31382;SDS011;18014;49.228;11.102;2024-03-02T02:31:10;32.83;;;20.25;;
31382;SDS011;18014;49.228;11.102;2024-03-02T02:33:11;32.05;;;18.70;;
31382;SDS011;18014;49.228;11.102;2024-03-02T02:35:12;32.85;;;19.50;;
31382;SDS011;18014;49.228;11.102;2024-03-02T02:37:13;29.40;;;18.95;;
31382;SDS011;18014;49.228;11.102;2024-03-02T02:39:16;31.70;;;19.45;;
31382;SDS011;18014;49.228;11.102;2024-03-02T02:41:20;28.45;;;17.75;;
31382;SDS011;18014;49.228;11.102;2024-03-02T02:43:21;30.92;;;18.42;;
31382;SDS011;18014;49.228;11.102;2024-03-02T02:45:22;26.73;;;16.40;;
31382;SDS011;18014;49.228;11.102;2024-03-02T02:47:23;25.52;;;17.17;;
31382;SDS011;18014;49.228;11.102;2024-03-02T02:49:25;23.73;;;15.50;;
31382;SDS011;18014;49.228;11.102;2024-03-02T02:51:26;22.73;;;14.45;;
31382;SDS011;18014;49.228;11.102;2024-03-02T02:53:27;22.42;;;14.32;;
31382;SDS011;18014;49.228;11.102;2024-03-02T02:55:28;22.48;;;15.80;;
31382;SDS011;18014;49.228;11.102;2024-03-02T02:57:29;22.75;;;14.55;;
31382;SDS011;18014;49.228;11.102;2024-03-02T02:59:35;21.33;;;13.25;;
31382;SDS011;18014;49.228;11.102;2024-03-02T03:01:36;20.85;;;14.15;;
31382;SDS011;18014;49.228;11.102;2024-03-02T03:03:37;20.88;;;13.60;;
31382;SDS011;18014;49.228;11.102;2024-03-02T03:05:38;22.65;;;14.52;;
31382;SDS011;18014;49.228;11.102;2024-03-02T03:07:40;21.40;;;13.15;;
31382;SDS011;18014;49.228;11.102;2024-03-02T03:09:41;24.88;;;14.95;;
31382;SDS011;18014;49.228;11.102;2024-03-02T03:11:42;23.30;;;13.32;;
31382;SDS011;18014;49.228;11.102;2024-03-02T03:13:44;22.90;;;14.45;;
31382;SDS011;18014;49.228;11.102;2024-03-02T03:15:45;20.92;;;13.82;;
31382;SDS011;18014;49.228;11.102;2024-03-02T03:17:46;21.00;;;13.25;;
31382;SDS011;18014;49.228;11.102;2024-03-02T03:19:47;20.77;;;13.18;;
31382;SDS011;18014;49.228;11.102;2024-03-02T03:21:48;23.42;;;15.25;;
31382;SDS011;18014;49.228;11.102;2024-03-02T03:23:49;23.55;;;14.70;;
31382;SDS011;18014;49.228;11.102;2024-03-02T03:25:50;22.40;;;14.43;;
31382;SDS011;18014;49.228;11.102;2024-03-02T03:27:51;23.85;;;14.85;;
31382;SDS011;18014;49.228;11.102;2024-03-02T03:29:52;24.48;;;14.18;;
31382;SDS011;18014;49.228;11.102;2024-03-02T03:31:54;25.27;;;14.30;;
31382;SDS011;18014;49.228;11.102;2024-03-02T03:33:55;21.77;;;14.27;;
31382;SDS011;18014;49.228;11.102;2024-03-02T03:35:56;24.30;;;15.52;;
31382;SDS011;18014;49.228;11.102;2024-03-02T03:37:57;23.60;;;15.50;;
31382;SDS011;18014;49.228;11.102;2024-03-02T03:39:59;26.50;;;15.02;;
31382;SDS011;18014;49.228;11.102;2024-03-02T03:42:01;26.65;;;16.15;;
31382;SDS011;18014;49.228;11.102;2024-03-02T03:44:01;25.35;;;16.02;;
31382;SDS011;18014;49.228;11.102;2024-03-02T03:46:03;28.35;;;15.75;;
31382;SDS011;18014;49.228;11.102;2024-03-02T03:48:04;21.13;;;13.75;;
31382;SDS011;18014;49.228;11.102;2024-03-02T03:50:06;21.95;;;14.63;;
31382;SDS011;18014;49.228;11.102;2024-03-02T03:52:07;21.92;;;13.60;;
31382;SDS011;18014;49.228;11.102;2024-03-02T03:54:08;22.35;;;15.18;;
31382;SDS011;18014;49.228;11.102;2024-03-02T03:56:11;25.88;;;15.30;;
31382;SDS011;18014;49.228;11.102;2024-03-02T03:58:12;21.42;;;14.13;;
31382;SDS011;18014;49.228;11.102;2024-03-02T04:00:13;24.95;;;14.50;;
31382;SDS011;18014;49.228;11.102;2024-03-02T04:02:15;19.63;;;14.05;;
31382;SDS011;18014;49.228;11.102;2024-03-02T04:04:16;24.90;;;15.95;;
31382;SDS011;18014;49.228;11.102;2024-03-02T04:06:17;24.13;;;14.98;;
31382;SDS011;18014;49.228;11.102;2024-03-02T04:08:18;25.45;;;15.90;;
31382;SDS011;18014;49.228;11.102;2024-03-02T04:10:19;27.58;;;17.38;;
31382;SDS011;18014;49.228;11.102;2024-03-02T04:12:20;23.98;;;16.98;;
31382;SDS011;18014;49.228;11.102;2024-03-02T04:14:22;24.48;;;15.95;;
31382;SDS011;18014;49.228;11.102;2024-03-02T04:16:23;26.50;;;16.17;;
31382;SDS011;18014;49.228;11.102;2024-03-02T04:18:24;24.67;;;17.00;;
31382;SDS011;18014;49.228;11.102;2024-03-02T04:20:24;27.33;;;16.42;;
31382;SDS011;18014;49.228;11.102;2024-03-02T04:22:26;27.60;;;16.08;;
31382;SDS011;18014;49.228;11.102;2024-03-02T04:24:27;29.38;;;17.70;;
31382;SDS011;18014;49.228;11.102;2024-03-02T04:26:28;26.90;;;18.25;;
31382;SDS011;18014;49.228;11.102;2024-03-02T04:28:29;31.58;;;19.52;;
31382;SDS011;18014;49.228;11.102;2024-03-02T04:30:30;31.77;;;18.35;;
31382;SDS011;18014;49.228;11.102;2024-03-02T04:32:32;28.05;;;17.63;;
31382;SDS011;18014;49.228;11.102;2024-03-02T04:34:33;30.58;;;17.77;;
31382;SDS011;18014;49.228;11.102;2024-03-02T04:36:34;28.95;;;17.27;;
31382;SDS011;18014;49.228;11.102;2024-03-02T04:38:35;28.27;;;17.42;;
31382;SDS011;18014;49.228;11.102;2024-03-02T04:40:36;34.42;;;18.95;;
31382;SDS011;18014;49.228;11.102;2024-03-02T04:42:37;28.45;;;18.10;;
31382;SDS011;18014;49.228;11.102;2024-03-02T04:44:38;32.42;;;18.13;;
31382;SDS011;18014;49.228;11.102;2024-03-02T04:46:39;32.47;;;18.35;;
31382;SDS011;18014;49.228;11.102;2024-03-02T04:48:40;31.70;;;19.23;;
31382;SDS011;18014;49.228;11.102;2024-03-02T04:50:41;32.17;;;20.45;;
31382;SDS011;18014;49.228;11.102;2024-03-02T04:52:42;22.63;;;14.73;;
31382;SDS011;18014;49.228;11.102;2024-03-02T04:54:43;26.33;;;14.65;;
31382;SDS011;18014;49.228;11.102;2024-03-02T04:57:03;25.98;;;16.13;;
31382;SDS011;18014;49.228;11.102;2024-03-02T04:59:04;24.05;;;14.82;;
31382;SDS011;18014;49.228;11.102;2024-03-02T05:01:06;22.77;;;14.27;;
31382;SDS011;18014;49.228;11.102;2024-03-02T05:03:07;33.15;;;19.45;;
31382;SDS011;18014;49.228;11.102;2024-03-02T05:05:08;22.45;;;15.07;;
31382;SDS011;18014;49.228;11.102;2024-03-02T05:07:09;26.63;;;15.52;;
31382;SDS011;18014;49.228;11.102;2024-03-02T05:09:10;25.20;;;15.93;;
31382;SDS011;18014;49.228;11.102;2024-03-02T05:11:11;28.10;;;15.10;;
31382;SDS011;18014;49.228;11.102;2024-03-02T05:13:32;28.30;;;16.95;;
31382;SDS011;18014;49.228;11.102;2024-03-02T05:15:33;27.13;;;17.70;;
31382;SDS011;18014;49.228;11.102;2024-03-02T05:17:34;29.70;;;17.67;;
31382;SDS011;18014;49.228;11.102;2024-03-02T05:19:35;32.42;;;20.40;;
31382;SDS011;18014;49.228;11.102;2024-03-02T05:21:36;29.83;;;18.60;;
31382;SDS011;18014;49.228;11.102;2024-03-02T05:23:36;39.33;;;20.30;;
31382;SDS011;18014;49.228;11.102;2024-03-02T05:25:38;29.07;;;17.93;;
31382;SDS011;18014;49.228;11.102;2024-03-02T05:27:39;31.60;;;18.77;;
31382;SDS011;18014;49.228;11.102;2024-03-02T05:29:41;32.72;;;18.63;;
31382;SDS011;18014;49.228;11.102;2024-03-02T05:31:42;41.25;;;22.80;;
31382;SDS011;18014;49.228;11.102;2024-03-02T05:33:43;27.40;;;16.45;;
31382;SDS011;18014;49.228;11.102;2024-03-02T05:35:44;29.02;;;16.17;;
31382;SDS011;18014;49.228;11.102;2024-03-02T05:37:45;33.03;;;18.60;;
31382;SDS011;18014;49.228;11.102;2024-03-02T05:39:46;31.33;;;17.65;;
31382;SDS011;18014;49.228;11.102;2024-03-02T05:41:47;33.95;;;19.58;;
31382;SDS011;18014;49.228;11.102;2024-03-02T05:43:48;34.47;;;20.63;;
31382;SDS011;18014;49.228;11.102;2024-03-02T05:45:49;37.22;;;19.60;;
31382;SDS011;18014;49.228;11.102;2024-03-02T05:47:50;35.45;;;19.17;;
31382;SDS011;18014;49.228;11.102;2024-03-02T05:49:51;37.13;;;21.27;;
31382;SDS011;18014;49.228;11.102;2024-03-02T05:51:52;45.17;;;27.13;;
31382;SDS011;18014;49.228;11.102;2024-03-02T05:53:53;26.85;;;17.48;;
31382;SDS011;18014;49.228;11.102;2024-03-02T05:55:54;36.28;;;20.73;;
31382;SDS011;18014;49.228;11.102;2024-03-02T05:57:55;61.17;;;37.80;;
31382;SDS011;18014;49.228;11.102;2024-03-02T06:00:06;51.17;;;29.90;;
31382;SDS011;18014;49.228;11.102;2024-03-02T06:02:08;40.78;;;24.85;;
31382;SDS011;18014;49.228;11.102;2024-03-02T06:04:09;42.20;;;26.23;;
31382;SDS011;18014;49.228;11.102;2024-03-02T06:06:13;25.63;;;14.75;;
31382;SDS011;18014;49.228;11.102;2024-03-02T06:08:14;30.77;;;17.15;;
31382;SDS011;18014;49.228;11.102;2024-03-02T06:10:15;28.85;;;17.50;;
31382;SDS011;18014;49.228;11.102;2024-03-02T06:12:16;32.67;;;18.38;;
31382;SDS011;18014;49.228;11.102;2024-03-02T06:14:17;34.35;;;19.65;;
31382;SDS011;18014;49.228;11.102;2024-03-02T06:16:18;41.85;;;22.35;;
31382;SDS011;18014;49.228;11.102;2024-03-02T06:18:19;34.17;;;20.52;;
31382;SDS011;18014;49.228;11.102;2024-03-02T06:20:20;34.53;;;21.55;;
31382;SDS011;18014;49.228;11.102;2024-03-02T06:22:21;35.88;;;20.40;;
31382;SDS011;18014;49.228;11.102;2024-03-02T06:24:24;34.03;;;20.20;;
31382;SDS011;18014;49.228;11.102;2024-03-02T06:26:26;38.28;;;21.02;;
31382;SDS011;18014;49.228;11.102;2024-03-02T06:30:29;35.45;;;20.98;;
31382;SDS011;18014;49.228;11.102;2024-03-02T06:32:31;39.55;;;22.92;;
31382;SDS011;18014;49.228;11.102;2024-03-02T06:34:31;36.38;;;20.42;;
31382;SDS011;18014;49.228;11.102;2024-03-02T06:36:32;37.85;;;20.83;;
31382;SDS011;18014;49.228;11.102;2024-03-02T06:38:34;35.17;;;20.83;;
31382;SDS011;18014;49.228;11.102;2024-03-02T06:40:35;40.42;;;21.73;;
31382;SDS011;18014;49.228;11.102;2024-03-02T06:42:38;40.83;;;22.35;;
31382;SDS011;18014;49.228;11.102;2024-03-02T06:44:39;35.20;;;21.45;;
31382;SDS011;18014;49.228;11.102;2024-03-02T06:46:40;37.03;;;20.75;;
31382;SDS011;18014;49.228;11.102;2024-03-02T06:48:41;34.92;;;21.95;;
31382;SDS011;18014;49.228;11.102;2024-03-02T06:50:42;38.15;;;21.25;;
31382;SDS011;18014;49.228;11.102;2024-03-02T06:52:43;42.65;;;23.05;;
31382;SDS011;18014;49.228;11.102;2024-03-02T06:54:44;39.70;;;21.90;;
31382;SDS011;18014;49.228;11.102;2024-03-02T06:56:45;42.80;;;22.67;;
31382;SDS011;18014;49.228;11.102;2024-03-02T06:58:46;37.28;;;21.92;;
31382;SDS011;18014;49.228;11.102;2024-03-02T07:00:47;39.20;;;23.58;;
31382;SDS011;18014;49.228;11.102;2024-03-02T07:02:48;40.47;;;22.70;;
31382;SDS011;18014;49.228;11.102;2024-03-02T07:04:49;39.95;;;21.98;;
31382;SDS011;18014;49.228;11.102;2024-03-02T07:06:51;45.65;;;22.58;;
31382;SDS011;18014;49.228;11.102;2024-03-02T07:08:52;47.78;;;24.60;;
31382;SDS011;18014;49.228;11.102;2024-03-02T07:10:53;43.47;;;22.52;;
31382;SDS011;18014;49.228;11.102;2024-03-02T07:12:54;39.92;;;21.25;;
31382;SDS011;18014;49.228;11.102;2024-03-02T07:14:55;42.88;;;23.27;;
31382;SDS011;18014;49.228;11.102;2024-03-02T07:17:05;47.30;;;24.02;;
31382;SDS011;18014;49.228;11.102;2024-03-02T07:19:06;45.67;;;23.13;;
31382;SDS011;18014;49.228;11.102;2024-03-02T07:21:07;42.75;;;22.95;;
31382;SDS011;18014;49.228;11.102;2024-03-02T07:23:08;46.97;;;23.30;;
31382;SDS011;18014;49.228;11.102;2024-03-02T07:25:09;43.10;;;23.45;;
31382;SDS011;18014;49.228;11.102;2024-03-02T07:27:10;44.17;;;23.33;;
31382;SDS011;18014;49.228;11.102;2024-03-02T07:29:12;44.95;;;23.55;;
31382;SDS011;18014;49.228;11.102;2024-03-02T07:31:13;42.20;;;21.67;;
31382;SDS011;18014;49.228;11.102;2024-03-02T07:33:14;40.17;;;23.30;;
31382;SDS011;18014;49.228;11.102;2024-03-02T07:35:16;39.47;;;21.38;;
31382;SDS011;18014;49.228;11.102;2024-03-02T07:37:18;43.05;;;21.98;;
31382;SDS011;18014;49.228;11.102;2024-03-02T07:39:20;40.05;;;21.75;;
31382;SDS011;18014;49.228;11.102;2024-03-02T07:41:21;49.42;;;23.90;;
31382;SDS011;18014;49.228;11.102;2024-03-02T07:43:22;44.88;;;22.05;;
31382;SDS011;18014;49.228;11.102;2024-03-02T07:45:23;42.80;;;21.25;;
31382;SDS011;18014;49.228;11.102;2024-03-02T07:47:24;41.65;;;23.17;;
31382;SDS011;18014;49.228;11.102;2024-03-02T07:49:25;38.22;;;21.52;;
31382;SDS011;18014;49.228;11.102;2024-03-02T07:51:26;39.50;;;21.75;;
31382;SDS011;18014;49.228;11.102;2024-03-02T07:53:27;34.88;;;20.23;;
31382;SDS011;18014;49.228;11.102;2024-03-02T07:55:28;42.92;;;22.83;;
31382;SDS011;18014;49.228;11.102;2024-03-02T07:57:30;39.58;;;21.35;;
31382;SDS011;18014;49.228;11.102;2024-03-02T07:59:31;35.92;;;20.55;;
31382;SDS011;18014;49.228;11.102;2024-03-02T08:01:32;35.38;;;20.60;;
31382;SDS011;18014;49.228;11.102;2024-03-02T08:03:33;36.63;;;20.23;;
31382;SDS011;18014;49.228;11.102;2024-03-02T08:05:34;38.00;;;20.50;;
31382;SDS011;18014;49.228;11.102;2024-03-02T08:07:35;32.50;;;20.35;;
31382;SDS011;18014;49.228;11.102;2024-03-02T08:09:37;40.15;;;21.45;;
31382;SDS011;18014;49.228;11.102;2024-03-02T08:11:38;32.85;;;20.23;;
31382;SDS011;18014;49.228;11.102;2024-03-02T08:13:39;35.13;;;19.23;;
31382;SDS011;18014;49.228;11.102;2024-03-02T08:15:40;31.75;;;18.98;;
31382;SDS011;18014;49.228;11.102;2024-03-02T08:17:41;32.33;;;19.05;;
31382;SDS011;18014;49.228;11.102;2024-03-02T08:19:48;32.30;;;18.33;;
31382;SDS011;18014;49.228;11.102;2024-03-02T08:21:49;31.50;;;18.40;;
31382;SDS011;18014;49.228;11.102;2024-03-02T08:23:50;33.55;;;19.20;;
31382;SDS011;18014;49.228;11.102;2024-03-02T08:25:51;29.35;;;17.48;;
31382;SDS011;18014;49.228;11.102;2024-03-02T08:27:52;29.23;;;17.70;;
31382;SDS011;18014;49.228;11.102;2024-03-02T08:29:53;29.05;;;17.65;;
31382;SDS011;18014;49.228;11.102;2024-03-02T08:31:54;31.52;;;17.85;;
31382;SDS011;18014;49.228;11.102;2024-03-02T08:33:55;30.90;;;17.33;;
31382;SDS011;18014;49.228;11.102;2024-03-02T08:35:57;29.73;;;17.23;;
31382;SDS011;18014;49.228;11.102;2024-03-02T08:37:58;28.02;;;17.17;;
31382;SDS011;18014;49.228;11.102;2024-03-02T08:40:01;26.27;;;16.45;;
31382;SDS011;18014;49.228;11.102;2024-03-02T08:42:04;27.15;;;16.67;;
31382;SDS011;18014;49.228;11.102;2024-03-02T08:44:05;28.05;;;17.02;;
31382;SDS011;18014;49.228;11.102;2024-03-02T08:46:06;28.23;;;16.33;;
31382;SDS011;18014;49.228;11.102;2024-03-02T08:48:07;28.30;;;16.17;;
31382;SDS011;18014;49.228;11.102;2024-03-02T08:50:08;26.20;;;16.25;;
31382;SDS011;18014;49.228;11.102;2024-03-02T08:52:09;26.17;;;16.23;;
31382;SDS011;18014;49.228;11.102;2024-03-02T08:54:10;26.52;;;15.88;;
31382;SDS011;18014;49.228;11.102;2024-03-02T08:56:11;28.77;;;15.38;;
31382;SDS011;18014;49.228;11.102;2024-03-02T08:58:13;25.65;;;15.27;;
31382;SDS011;18014;49.228;11.102;2024-03-02T09:00:14;26.17;;;15.30;;
31382;SDS011;18014;49.228;11.102;2024-03-02T09:02:15;24.45;;;15.32;;
31382;SDS011;18014;49.228;11.102;2024-03-02T09:04:16;21.83;;;14.10;;
31382;SDS011;18014;49.228;11.102;2024-03-02T09:06:17;22.77;;;13.57;;
31382;SDS011;18014;49.228;11.102;2024-03-02T09:08:19;22.40;;;13.82;;
31382;SDS011;18014;49.228;11.102;2024-03-02T09:10:20;21.23;;;13.27;;
31382;SDS011;18014;49.228;11.102;2024-03-02T09:12:21;21.85;;;13.65;;
31382;SDS011;18014;49.228;11.102;2024-03-02T09:14:22;19.17;;;12.32;;
31382;SDS011;18014;49.228;11.102;2024-03-02T09:16:23;20.13;;;12.63;;
31382;SDS011;18014;49.228;11.102;2024-03-02T09:18:30;20.75;;;12.32;;
31382;SDS011;18014;49.228;11.102;2024-03-02T09:20:31;19.02;;;12.23;;
31382;SDS011;18014;49.228;11.102;2024-03-02T09:22:32;16.08;;;10.80;;
31382;SDS011;18014;49.228;11.102;2024-03-02T09:24:33;18.35;;;11.10;;
31382;SDS011;18014;49.228;11.102;2024-03-02T09:26:34;17.42;;;10.95;;
31382;SDS011;18014;49.228;11.102;2024-03-02T09:28:35;17.35;;;10.85;;
31382;SDS011;18014;49.228;11.102;2024-03-02T09:30:36;16.23;;;10.23;;
31382;SDS011;18014;49.228;11.102;2024-03-02T09:32:37;14.95;;;10.73;;
31382;SDS011;18014;49.228;11.102;2024-03-02T09:34:38;18.27;;;11.48;;
31382;SDS011;18014;49.228;11.102;2024-03-02T09:36:39;18.35;;;10.98;;
31382;SDS011;18014;49.228;11.102;2024-03-02T09:38:41;18.15;;;10.27;;
31382;SDS011;18014;49.228;11.102;2024-03-02T09:40:42;14.98;;;11.05;;
31382;SDS011;18014;49.228;11.102;2024-03-02T09:42:43;21.05;;;11.32;;
31382;SDS011;18014;49.228;11.102;2024-03-02T09:44:51;15.43;;;10.25;;
31382;SDS011;18014;49.228;11.102;2024-03-02T09:46:52;15.18;;;10.02;;
31382;SDS011;18014;49.228;11.102;2024-03-02T09:48:53;17.70;;;10.82;;
31382;SDS011;18014;49.228;11.102;2024-03-02T09:50:55;15.82;;;9.68;;
31382;SDS011;18014;49.228;11.102;2024-03-02T09:52:56;15.23;;;9.73;;
31382;SDS011;18014;49.228;11.102;2024-03-02T09:54:57;14.75;;;9.80;;
31382;SDS011;18014;49.228;11.102;2024-03-02T09:56:58;13.80;;;8.95;;
31382;SDS011;18014;49.228;11.102;2024-03-02T09:59:01;14.77;;;8.65;;
31382;SDS011;18014;49.228;11.102;2024-03-02T10:01:05;14.48;;;9.38;;
31382;SDS011;18014;49.228;11.102;2024-03-02T10:03:11;14.02;;;8.27;;
31382;SDS011;18014;49.228;11.102;2024-03-02T10:05:12;14.63;;;9.27;;
31382;SDS011;18014;49.228;11.102;2024-03-02T10:07:23;12.88;;;8.60;;
31382;SDS011;18014;49.228;11.102;2024-03-02T10:09:27;12.68;;;8.35;;
31382;SDS011;18014;49.228;11.102;2024-03-02T10:11:32;12.38;;;8.70;;
31382;SDS011;18014;49.228;11.102;2024-03-02T10:13:36;14.02;;;8.05;;
31382;SDS011;18014;49.228;11.102;2024-03-02T10:15:37;13.13;;;8.35;;
31382;SDS011;18014;49.228;11.102;2024-03-02T10:17:42;15.93;;;9.57;;
31382;SDS011;18014;49.228;11.102;2024-03-02T10:19:43;12.57;;;8.18;;
31382;SDS011;18014;49.228;11.102;2024-03-02T10:21:45;13.57;;;8.60;;
31382;SDS011;18014;49.228;11.102;2024-03-02T10:23:47;14.57;;;9.18;;
31382;SDS011;18014;49.228;11.102;2024-03-02T10:25:48;16.42;;;9.45;;
31382;SDS011;18014;49.228;11.102;2024-03-02T10:27:49;16.63;;;9.23;;
31382;SDS011;18014;49.228;11.102;2024-03-02T10:29:50;16.48;;;9.38;;
31382;SDS011;18014;49.228;11.102;2024-03-02T10:31:51;15.43;;;9.85;;
31382;SDS011;18014;49.228;11.102;2024-03-02T10:33:52;15.05;;;9.43;;
31382;SDS011;18014;49.228;11.102;2024-03-02T10:35:57;16.27;;;10.85;;
31382;SDS011;18014;49.228;11.102;2024-03-02T10:37:59;16.63;;;10.77;;
31382;SDS011;18014;49.228;11.102;2024-03-02T10:40:04;14.18;;;9.48;;
31382;SDS011;18014;49.228;11.102;2024-03-02T10:42:06;18.40;;;11.05;;
31382;SDS011;18014;49.228;11.102;2024-03-02T10:44:08;14.57;;;9.70;;
31382;SDS011;18014;49.228;11.102;2024-03-02T10:46:10;13.75;;;8.90;;
31382;SDS011;18014;49.228;11.102;2024-03-02T10:48:12;16.70;;;10.10;;
31382;SDS011;18014;49.228;11.102;2024-03-02T10:50:13;17.17;;;10.48;;
31382;SDS011;18014;49.228;11.102;2024-03-02T10:52:14;18.42;;;10.00;;
31382;SDS011;18014;49.228;11.102;2024-03-02T10:54:15;15.35;;;10.48;;
31382;SDS011;18014;49.228;11.102;2024-03-02T10:56:21;17.20;;;10.95;;
31382;SDS011;18014;49.228;11.102;2024-03-02T10:58:30;19.23;;;10.40;;
31382;SDS011;18014;49.228;11.102;2024-03-02T11:00:35;18.88;;;11.15;;
31382;SDS011;18014;49.228;11.102;2024-03-02T11:02:38;23.23;;;13.88;;
31382;SDS011;18014;49.228;11.102;2024-03-02T11:04:42;20.90;;;14.18;;
31382;SDS011;18014;49.228;11.102;2024-03-02T11:06:50;21.48;;;14.07;;
31382;SDS011;18014;49.228;11.102;2024-03-02T11:08:52;26.40;;;15.07;;
31382;SDS011;18014;49.228;11.102;2024-03-02T11:10:58;24.73;;;16.67;;
31382;SDS011;18014;49.228;11.102;2024-03-02T11:13:09;25.00;;;17.40;;
31382;SDS011;18014;49.228;11.102;2024-03-02T11:15:13;23.58;;;16.17;;
31382;SDS011;18014;49.228;11.102;2024-03-02T11:17:21;30.25;;;18.08;;
31382;SDS011;18014;49.228;11.102;2024-03-02T11:19:23;26.93;;;18.00;;
31382;SDS011;18014;49.228;11.102;2024-03-02T11:21:24;32.25;;;18.20;;
31382;SDS011;18014;49.228;11.102;2024-03-02T11:23:32;32.17;;;18.95;;
31382;SDS011;18014;49.228;11.102;2024-03-02T11:25:34;27.65;;;18.48;;
31382;SDS011;18014;49.228;11.102;2024-03-02T11:29:45;29.00;;;17.15;;
31382;SDS011;18014;49.228;11.102;2024-03-02T11:31:59;29.38;;;18.25;;
31382;SDS011;18014;49.228;11.102;2024-03-02T11:34:16;27.20;;;19.30;;
31382;SDS011;18014;49.228;11.102;2024-03-02T11:36:29;26.40;;;16.67;;
31382;SDS011;18014;49.228;11.102;2024-03-02T11:38:31;26.10;;;16.10;;
31382;SDS011;18014;49.228;11.102;2024-03-02T11:40:33;27.42;;;16.30;;
31382;SDS011;18014;49.228;11.102;2024-03-02T11:42:34;24.75;;;15.77;;
31382;SDS011;18014;49.228;11.102;2024-03-02T11:44:35;26.33;;;16.48;;
31382;SDS011;18014;49.228;11.102;2024-03-02T11:46:39;26.55;;;14.95;;
31382;SDS011;18014;49.228;11.102;2024-03-02T11:48:40;27.55;;;15.32;;
31382;SDS011;18014;49.228;11.102;2024-03-02T11:52:49;26.60;;;15.32;;
31382;SDS011;18014;49.228;11.102;2024-03-02T11:54:50;38.15;;;21.35;;